sensor_id;sensor_type;location;lat;lon;timestamp;P1;durP1;ratioP1;P2;durP2;ratioP2
9970;SDS011;5026;51.494;11.974;2023-03-14T00:01:33;1.10;;;1.00;;
9970;SDS011;5026;51.494;11.974;2023-03-14T00:04:00;0.67;;;0.67;;
9970;SDS011;5026;51.494;11.974;2023-03-14T00:06:31;0.90;;;0.90;;
9970;SDS011;5026;51.494;11.974;2023-03-14T00:08:58;1.97;;;1.20;;
9970;SDS011;5026;51.494;11.974;2023-03-14T00:11:25;1.30;;;1.20;;
9970;SDS011;5026;51.494;11.974;2023-03-14T00:13:52;1.60;;;1.00;;
9970;SDS011;5026;51.494;11.974;2023-03-14T00:16:19;1.07;;;0.70;;
9970;SDS011;5026;51.494;11.974;2023-03-14T00:18:47;1.70;;;0.93;;
9970;SDS011;5026;51.494;11.974;2023-03-14T00:21:14;2.20;;;0.70;;
9970;SDS011;5026;51.494;11.974;2023-03-14T00:23:42;0.93;;;0.83;;
9970;SDS011;5026;51.494;11.974;2023-03-14T00:26:10;0.60;;;0.60;;
9970;SDS011;5026;51.494;11.974;2023-03-14T00:28:38;1.63;;;0.73;;
9970;SDS011;5026;51.494;11.974;2023-03-14T00:31:06;2.58;;;0.70;;
9970;SDS011;5026;51.494;11.974;2023-03-14T00:33:34;0.70;;;0.70;;
9970;SDS011;5026;51.494;11.974;2023-03-14T00:36:02;1.05;;;0.80;;
9970;SDS011;5026;51.494;11.974;2023-03-14T00:38:31;0.63;;;0.63;;
9970;SDS011;5026;51.494;11.974;2023-03-14T00:41:01;0.97;;;0.80;;
9970;SDS011;5026;51.494;11.974;2023-03-14T00:43:29;0.60;;;0.60;;
9970;SDS011;5026;51.494;11.974;2023-03-14T00:45:56;0.73;;;0.70;;
9970;SDS011;5026;51.494;11.974;2023-03-14T00:48:23;0.87;;;0.80;;
9970;SDS011;5026;51.494;11.974;2023-03-14T00:50:50;0.80;;;0.80;;
9970;SDS011;5026;51.494;11.974;2023-03-14T00:53:17;2.30;;;0.85;;
9970;SDS011;5026;51.494;11.974;2023-03-14T00:55:44;1.40;;;0.70;;
9970;SDS011;5026;51.494;11.974;2023-03-14T00:58:13;1.37;;;0.80;;
9970;SDS011;5026;51.494;11.974;2023-03-14T01:00:42;1.40;;;0.90;;
9970;SDS011;5026;51.494;11.974;2023-03-14T01:03:10;0.95;;;0.80;;
9970;SDS011;5026;51.494;11.974;2023-03-14T01:05:37;1.53;;;1.00;;
9970;SDS011;5026;51.494;11.974;2023-03-14T01:08:05;0.90;;;0.77;;
9970;SDS011;5026;51.494;11.974;2023-03-14T01:10:33;0.93;;;0.40;;
9970;SDS011;5026;51.494;11.974;2023-03-14T01:13:00;1.23;;;0.70;;
9970;SDS011;5026;51.494;11.974;2023-03-14T01:15:28;1.23;;;0.77;;
9970;SDS011;5026;51.494;11.974;2023-03-14T01:17:58;0.60;;;0.60;;
9970;SDS011;5026;51.494;11.974;2023-03-14T01:20:25;1.60;;;0.67;;
9970;SDS011;5026;51.494;11.974;2023-03-14T01:22:52;1.07;;;0.70;;
9970;SDS011;5026;51.494;11.974;2023-03-14T01:25:18;0.90;;;0.80;;
9970;SDS011;5026;51.494;11.974;2023-03-14T01:27:45;1.03;;;0.90;;
9970;SDS011;5026;51.494;11.974;2023-03-14T01:30:12;2.07;;;0.70;;
9970;SDS011;5026;51.494;11.974;2023-03-14T01:32:41;0.50;;;0.50;;
9970;SDS011;5026;51.494;11.974;2023-03-14T01:35:08;1.00;;;0.80;;
9970;SDS011;5026;51.494;11.974;2023-03-14T01:37:35;1.10;;;0.90;;
9970;SDS011;5026;51.494;11.974;2023-03-14T01:40:02;3.40;;;0.93;;
9970;SDS011;5026;51.494;11.974;2023-03-14T01:42:31;0.70;;;0.70;;
9970;SDS011;5026;51.494;11.974;2023-03-14T01:44:58;0.60;;;0.60;;
9970;SDS011;5026;51.494;11.974;2023-03-14T01:47:26;0.90;;;0.43;;
9970;SDS011;5026;51.494;11.974;2023-03-14T01:49:56;1.93;;;0.80;;
9970;SDS011;5026;51.494;11.974;2023-03-14T01:52:26;1.20;;;0.60;;
9970;SDS011;5026;51.494;11.974;2023-03-14T01:54:59;1.33;;;0.60;;
9970;SDS011;5026;51.494;11.974;2023-03-14T01:57:30;0.70;;;0.70;;
9970;SDS011;5026;51.494;11.974;2023-03-14T02:00:00;1.07;;;0.67;;
9970;SDS011;5026;51.494;11.974;2023-03-14T02:02:35;0.80;;;0.80;;
9970;SDS011;5026;51.494;11.974;2023-03-14T02:05:03;1.10;;;0.77;;
9970;SDS011;5026;51.494;11.974;2023-03-14T02:07:33;2.17;;;0.77;;
9970;SDS011;5026;51.494;11.974;2023-03-14T02:10:04;0.70;;;0.70;;
9970;SDS011;5026;51.494;11.974;2023-03-14T02:12:32;0.73;;;0.68;;
9970;SDS011;5026;51.494;11.974;2023-03-14T02:15:01;0.95;;;0.60;;
9970;SDS011;5026;51.494;11.974;2023-03-14T02:17:28;0.77;;;0.77;;
9970;SDS011;5026;51.494;11.974;2023-03-14T02:20:03;1.52;;;0.55;;
9970;SDS011;5026;51.494;11.974;2023-03-14T02:22:40;1.03;;;0.93;;
9970;SDS011;5026;51.494;11.974;2023-03-14T02:25:11;0.70;;;0.67;;
9970;SDS011;5026;51.494;11.974;2023-03-14T02:27:44;1.13;;;0.60;;
9970;SDS011;5026;51.494;11.974;2023-03-14T02:30:13;0.70;;;0.70;;
9970;SDS011;5026;51.494;11.974;2023-03-14T02:32:43;0.83;;;0.70;;
9970;SDS011;5026;51.494;11.974;2023-03-14T02:35:13;1.07;;;0.50;;
9970;SDS011;5026;51.494;11.974;2023-03-14T02:37:43;0.60;;;0.60;;
9970;SDS011;5026;51.494;11.974;2023-03-14T02:40:14;0.60;;;0.60;;
9970;SDS011;5026;51.494;11.974;2023-03-14T02:42:41;0.40;;;0.40;;
9970;SDS011;5026;51.494;11.974;2023-03-14T02:48:02;0.60;;;0.57;;
9970;SDS011;5026;51.494;11.974;2023-03-14T02:50:33;1.03;;;0.63;;
9970;SDS011;5026;51.494;11.974;2023-03-14T02:53:00;1.33;;;0.63;;
9970;SDS011;5026;51.494;11.974;2023-03-14T02:55:27;1.20;;;0.77;;
9970;SDS011;5026;51.494;11.974;2023-03-14T02:57:56;0.60;;;0.60;;
9970;SDS011;5026;51.494;11.974;2023-03-14T03:00:23;1.17;;;0.80;;
9970;SDS011;5026;51.494;11.974;2023-03-14T03:02:50;2.57;;;0.77;;
9970;SDS011;5026;51.494;11.974;2023-03-14T03:05:17;0.97;;;0.67;;
9970;SDS011;5026;51.494;11.974;2023-03-14T03:07:44;0.83;;;0.83;;
9970;SDS011;5026;51.494;11.974;2023-03-14T03:10:11;0.90;;;0.83;;
9970;SDS011;5026;51.494;11.974;2023-03-14T03:12:38;0.73;;;0.60;;
9970;SDS011;5026;51.494;11.974;2023-03-14T03:15:07;2.50;;;0.80;;
9970;SDS011;5026;51.494;11.974;2023-03-14T03:17:34;0.90;;;0.90;;
9970;SDS011;5026;51.494;11.974;2023-03-14T03:20:01;1.90;;;0.70;;
9970;SDS011;5026;51.494;11.974;2023-03-14T03:22:28;1.70;;;0.97;;
9970;SDS011;5026;51.494;11.974;2023-03-14T03:24:55;1.10;;;0.80;;
9970;SDS011;5026;51.494;11.974;2023-03-14T03:27:22;1.00;;;0.80;;
9970;SDS011;5026;51.494;11.974;2023-03-14T03:29:49;2.27;;;0.90;;
9970;SDS011;5026;51.494;11.974;2023-03-14T03:32:17;1.93;;;0.80;;
9970;SDS011;5026;51.494;11.974;2023-03-14T03:34:44;0.80;;;0.70;;
9970;SDS011;5026;51.494;11.974;2023-03-14T03:37:11;1.17;;;0.87;;
9970;SDS011;5026;51.494;11.974;2023-03-14T03:39:38;1.17;;;1.00;;
9970;SDS011;5026;51.494;11.974;2023-03-14T03:42:05;1.90;;;0.97;;
9970;SDS011;5026;51.494;11.974;2023-03-14T03:44:32;1.00;;;0.80;;
9970;SDS011;5026;51.494;11.974;2023-03-14T03:46:59;1.33;;;0.80;;
9970;SDS011;5026;51.494;11.974;2023-03-14T03:49:29;1.40;;;0.60;;
9970;SDS011;5026;51.494;11.974;2023-03-14T03:51:56;1.77;;;0.63;;
9970;SDS011;5026;51.494;11.974;2023-03-14T03:54:23;1.40;;;0.80;;
9970;SDS011;5026;51.494;11.974;2023-03-14T03:56:50;1.53;;;1.07;;
9970;SDS011;5026;51.494;11.974;2023-03-14T03:59:17;2.20;;;0.80;;
9970;SDS011;5026;51.494;11.974;2023-03-14T04:01:44;2.63;;;1.33;;
9970;SDS011;5026;51.494;11.974;2023-03-14T04:04:12;0.57;;;0.53;;
9970;SDS011;5026;51.494;11.974;2023-03-14T04:06:40;3.07;;;1.00;;
9970;SDS011;5026;51.494;11.974;2023-03-14T04:09:07;1.53;;;0.57;;
9970;SDS011;5026;51.494;11.974;2023-03-14T04:11:35;0.90;;;0.70;;
9970;SDS011;5026;51.494;11.974;2023-03-14T04:14:02;2.40;;;0.80;;
9970;SDS011;5026;51.494;11.974;2023-03-14T04:16:29;2.30;;;0.90;;
9970;SDS011;5026;51.494;11.974;2023-03-14T04:18:56;0.60;;;0.60;;
9970;SDS011;5026;51.494;11.974;2023-03-14T04:21:23;2.07;;;1.10;;
9970;SDS011;5026;51.494;11.974;2023-03-14T04:23:52;1.20;;;0.63;;
9970;SDS011;5026;51.494;11.974;2023-03-14T04:26:19;0.93;;;0.83;;
9970;SDS011;5026;51.494;11.974;2023-03-14T04:28:46;0.77;;;0.67;;
9970;SDS011;5026;51.494;11.974;2023-03-14T04:31:13;1.63;;;0.83;;
9970;SDS011;5026;51.494;11.974;2023-03-14T04:33:41;2.20;;;0.87;;
9970;SDS011;5026;51.494;11.974;2023-03-14T04:36:08;2.13;;;0.77;;
9970;SDS011;5026;51.494;11.974;2023-03-14T04:38:35;2.73;;;0.70;;
9970;SDS011;5026;51.494;11.974;2023-03-14T04:41:04;1.90;;;0.90;;
9970;SDS011;5026;51.494;11.974;2023-03-14T04:43:32;3.50;;;0.80;;
9970;SDS011;5026;51.494;11.974;2023-03-14T04:45:59;1.70;;;0.67;;
9970;SDS011;5026;51.494;11.974;2023-03-14T04:48:26;2.87;;;1.07;;
9970;SDS011;5026;51.494;11.974;2023-03-14T04:50:53;2.43;;;1.10;;
9970;SDS011;5026;51.494;11.974;2023-03-14T04:53:20;5.77;;;1.00;;
9970;SDS011;5026;51.494;11.974;2023-03-14T04:55:47;4.03;;;1.27;;
9970;SDS011;5026;51.494;11.974;2023-03-14T04:58:17;2.07;;;0.90;;
9970;SDS011;5026;51.494;11.974;2023-03-14T05:00:44;2.83;;;1.23;;
9970;SDS011;5026;51.494;11.974;2023-03-14T05:03:11;1.97;;;1.23;;
9970;SDS011;5026;51.494;11.974;2023-03-14T05:05:40;3.77;;;1.37;;
9970;SDS011;5026;51.494;11.974;2023-03-14T05:08:07;2.17;;;1.13;;
9970;SDS011;5026;51.494;11.974;2023-03-14T05:10:34;1.23;;;1.00;;
9970;SDS011;5026;51.494;11.974;2023-03-14T05:13:01;5.47;;;1.57;;
9970;SDS011;5026;51.494;11.974;2023-03-14T05:15:30;3.30;;;1.20;;
9970;SDS011;5026;51.494;11.974;2023-03-14T05:17:56;3.63;;;1.20;;
9970;SDS011;5026;51.494;11.974;2023-03-14T05:20:23;1.43;;;0.73;;
9970;SDS011;5026;51.494;11.974;2023-03-14T05:22:50;3.53;;;1.27;;
9970;SDS011;5026;51.494;11.974;2023-03-14T05:25:17;3.33;;;1.20;;
9970;SDS011;5026;51.494;11.974;2023-03-14T05:27:44;2.43;;;0.97;;
9970;SDS011;5026;51.494;11.974;2023-03-14T05:30:11;3.37;;;1.13;;
9970;SDS011;5026;51.494;11.974;2023-03-14T05:32:40;4.47;;;1.30;;
9970;SDS011;5026;51.494;11.974;2023-03-14T05:35:07;5.20;;;1.30;;
9970;SDS011;5026;51.494;11.974;2023-03-14T05:37:34;3.77;;;1.20;;
9970;SDS011;5026;51.494;11.974;2023-03-14T05:40:01;2.57;;;1.20;;
9970;SDS011;5026;51.494;11.974;2023-03-14T05:42:29;5.03;;;1.27;;
9970;SDS011;5026;51.494;11.974;2023-03-14T05:44:56;3.57;;;1.37;;
9970;SDS011;5026;51.494;11.974;2023-03-14T05:47:23;1.87;;;1.13;;
9970;SDS011;5026;51.494;11.974;2023-03-14T05:49:51;4.97;;;1.50;;
9970;SDS011;5026;51.494;11.974;2023-03-14T05:52:18;6.77;;;1.67;;
9970;SDS011;5026;51.494;11.974;2023-03-14T05:54:45;3.00;;;1.40;;
9970;SDS011;5026;51.494;11.974;2023-03-14T05:57:12;4.40;;;1.70;;
9970;SDS011;5026;51.494;11.974;2023-03-14T05:59:39;6.83;;;1.50;;
9970;SDS011;5026;51.494;11.974;2023-03-14T06:02:06;6.97;;;1.60;;
9970;SDS011;5026;51.494;11.974;2023-03-14T06:04:33;5.37;;;1.60;;
9970;SDS011;5026;51.494;11.974;2023-03-14T06:07:01;3.47;;;1.27;;
9970;SDS011;5026;51.494;11.974;2023-03-14T06:09:28;2.83;;;1.30;;
9970;SDS011;5026;51.494;11.974;2023-03-14T06:11:55;3.17;;;0.87;;
9970;SDS011;5026;51.494;11.974;2023-03-14T06:14:22;2.90;;;1.40;;
9970;SDS011;5026;51.494;11.974;2023-03-14T06:16:49;3.70;;;1.30;;
9970;SDS011;5026;51.494;11.974;2023-03-14T06:19:16;3.40;;;1.37;;
9970;SDS011;5026;51.494;11.974;2023-03-14T06:21:43;4.05;;;1.30;;
9970;SDS011;5026;51.494;11.974;2023-03-14T06:24:11;3.42;;;0.98;;
9970;SDS011;5026;51.494;11.974;2023-03-14T06:26:38;2.43;;;1.00;;
9970;SDS011;5026;51.494;11.974;2023-03-14T06:29:05;4.23;;;0.80;;
9970;SDS011;5026;51.494;11.974;2023-03-14T06:31:32;3.30;;;0.93;;
9970;SDS011;5026;51.494;11.974;2023-03-14T06:33:59;4.50;;;1.10;;
9970;SDS011;5026;51.494;11.974;2023-03-14T06:36:26;3.25;;;1.02;;
9970;SDS011;5026;51.494;11.974;2023-03-14T06:38:53;2.60;;;1.02;;
9970;SDS011;5026;51.494;11.974;2023-03-14T06:41:21;2.97;;;1.10;;
9970;SDS011;5026;51.494;11.974;2023-03-14T06:43:51;3.15;;;1.20;;
9970;SDS011;5026;51.494;11.974;2023-03-14T06:46:18;4.30;;;1.40;;
9970;SDS011;5026;51.494;11.974;2023-03-14T06:48:45;3.20;;;1.20;;
9970;SDS011;5026;51.494;11.974;2023-03-14T06:51:11;3.63;;;1.10;;
9970;SDS011;5026;51.494;11.974;2023-03-14T06:53:38;4.70;;;1.30;;
9970;SDS011;5026;51.494;11.974;2023-03-14T06:56:06;2.75;;;1.08;;
9970;SDS011;5026;51.494;11.974;2023-03-14T06:58:35;3.75;;;1.17;;
9970;SDS011;5026;51.494;11.974;2023-03-14T07:01:02;4.30;;;1.42;;
9970;SDS011;5026;51.494;11.974;2023-03-14T07:03:29;2.22;;;1.35;;
9970;SDS011;5026;51.494;11.974;2023-03-14T07:05:56;1.60;;;0.95;;
9970;SDS011;5026;51.494;11.974;2023-03-14T07:08:24;3.25;;;1.10;;
9970;SDS011;5026;51.494;11.974;2023-03-14T07:10:51;3.97;;;1.13;;
9970;SDS011;5026;51.494;11.974;2023-03-14T07:13:18;3.17;;;0.95;;
9970;SDS011;5026;51.494;11.974;2023-03-14T07:15:46;3.30;;;1.00;;
9970;SDS011;5026;51.494;11.974;2023-03-14T07:18:13;5.28;;;1.70;;
9970;SDS011;5026;51.494;11.974;2023-03-14T07:20:40;3.72;;;1.70;;
9970;SDS011;5026;51.494;11.974;2023-03-14T07:23:07;2.75;;;1.40;;
9970;SDS011;5026;51.494;11.974;2023-03-14T07:25:34;5.03;;;0.95;;
9970;SDS011;5026;51.494;11.974;2023-03-14T07:28:01;2.80;;;1.38;;
9970;SDS011;5026;51.494;11.974;2023-03-14T07:30:28;4.10;;;1.13;;
9970;SDS011;5026;51.494;11.974;2023-03-14T07:32:56;4.97;;;1.55;;
9970;SDS011;5026;51.494;11.974;2023-03-14T07:35:23;3.15;;;1.13;;
9970;SDS011;5026;51.494;11.974;2023-03-14T07:37:50;2.38;;;1.33;;
9970;SDS011;5026;51.494;11.974;2023-03-14T07:40:17;5.38;;;1.05;;
9970;SDS011;5026;51.494;11.974;2023-03-14T07:42:44;3.50;;;1.10;;
9970;SDS011;5026;51.494;11.974;2023-03-14T07:45:11;1.75;;;0.70;;
9970;SDS011;5026;51.494;11.974;2023-03-14T07:47:38;3.30;;;0.93;;
9970;SDS011;5026;51.494;11.974;2023-03-14T07:50:07;3.85;;;1.55;;
9970;SDS011;5026;51.494;11.974;2023-03-14T07:52:35;3.00;;;1.52;;
9970;SDS011;5026;51.494;11.974;2023-03-14T07:55:02;2.33;;;1.10;;
9970;SDS011;5026;51.494;11.974;2023-03-14T07:57:29;3.03;;;1.05;;
9970;SDS011;5026;51.494;11.974;2023-03-14T07:59:56;2.83;;;0.98;;
9970;SDS011;5026;51.494;11.974;2023-03-14T08:02:23;1.40;;;0.88;;
9970;SDS011;5026;51.494;11.974;2023-03-14T08:04:50;3.58;;;1.00;;
9970;SDS011;5026;51.494;11.974;2023-03-14T08:07:18;5.05;;;1.25;;
9970;SDS011;5026;51.494;11.974;2023-03-14T08:09:45;1.35;;;0.70;;
9970;SDS011;5026;51.494;11.974;2023-03-14T08:12:12;4.55;;;1.17;;
9970;SDS011;5026;51.494;11.974;2023-03-14T08:14:39;2.05;;;1.00;;
9970;SDS011;5026;51.494;11.974;2023-03-14T08:17:06;2.72;;;0.95;;
9970;SDS011;5026;51.494;11.974;2023-03-14T08:19:33;2.22;;;0.80;;
9970;SDS011;5026;51.494;11.974;2023-03-14T08:22:00;2.70;;;1.20;;
9970;SDS011;5026;51.494;11.974;2023-03-14T08:24:29;2.42;;;1.13;;
9970;SDS011;5026;51.494;11.974;2023-03-14T08:26:56;2.42;;;0.93;;
9970;SDS011;5026;51.494;11.974;2023-03-14T08:29:23;1.95;;;1.13;;
9970;SDS011;5026;51.494;11.974;2023-03-14T08:31:50;3.70;;;0.90;;
9970;SDS011;5026;51.494;11.974;2023-03-14T08:34:17;2.85;;;1.00;;
9970;SDS011;5026;51.494;11.974;2023-03-14T08:36:44;3.20;;;0.80;;
9970;SDS011;5026;51.494;11.974;2023-03-14T08:39:11;1.60;;;0.77;;
9970;SDS011;5026;51.494;11.974;2023-03-14T08:41:39;2.65;;;0.77;;
9970;SDS011;5026;51.494;11.974;2023-03-14T08:44:08;1.05;;;0.90;;
9970;SDS011;5026;51.494;11.974;2023-03-14T08:46:36;2.95;;;1.13;;
9970;SDS011;5026;51.494;11.974;2023-03-14T08:49:03;0.80;;;0.63;;
9970;SDS011;5026;51.494;11.974;2023-03-14T08:51:30;1.10;;;1.00;;
9970;SDS011;5026;51.494;11.974;2023-03-14T08:53:57;2.20;;;0.77;;
9970;SDS011;5026;51.494;11.974;2023-03-14T08:56:24;1.55;;;0.90;;
9970;SDS011;5026;51.494;11.974;2023-03-14T08:58:52;0.75;;;0.70;;
9970;SDS011;5026;51.494;11.974;2023-03-14T09:01:19;3.13;;;0.93;;
9970;SDS011;5026;51.494;11.974;2023-03-14T09:03:49;3.40;;;0.73;;
9970;SDS011;5026;51.494;11.974;2023-03-14T09:06:16;1.23;;;0.90;;
9970;SDS011;5026;51.494;11.974;2023-03-14T09:08:43;1.77;;;0.80;;
9970;SDS011;5026;51.494;11.974;2023-03-14T09:11:10;2.40;;;0.80;;
9970;SDS011;5026;51.494;11.974;2023-03-14T09:13:38;2.53;;;0.65;;
9970;SDS011;5026;51.494;11.974;2023-03-14T09:16:06;2.33;;;0.82;;
9970;SDS011;5026;51.494;11.974;2023-03-14T09:18:34;1.65;;;1.00;;
9970;SDS011;5026;51.494;11.974;2023-03-14T09:21:01;2.25;;;1.35;;
9970;SDS011;5026;51.494;11.974;2023-03-14T09:23:28;2.35;;;1.30;;
9970;SDS011;5026;51.494;11.974;2023-03-14T09:25:56;2.47;;;0.95;;
9970;SDS011;5026;51.494;11.974;2023-03-14T09:28:23;3.65;;;1.00;;
9970;SDS011;5026;51.494;11.974;2023-03-14T09:30:51;1.13;;;0.88;;
9970;SDS011;5026;51.494;11.974;2023-03-14T09:33:19;1.13;;;0.80;;
9970;SDS011;5026;51.494;11.974;2023-03-14T09:35:46;2.72;;;0.70;;
9970;SDS011;5026;51.494;11.974;2023-03-14T09:38:13;2.95;;;0.70;;
9970;SDS011;5026;51.494;11.974;2023-03-14T09:40:40;1.67;;;0.75;;
9970;SDS011;5026;51.494;11.974;2023-03-14T09:43:08;2.55;;;0.65;;
9970;SDS011;5026;51.494;11.974;2023-03-14T09:45:38;1.85;;;0.50;;
9970;SDS011;5026;51.494;11.974;2023-03-14T09:48:08;1.67;;;0.70;;
9970;SDS011;5026;51.494;11.974;2023-03-14T09:50:44;1.83;;;0.73;;
9970;SDS011;5026;51.494;11.974;2023-03-14T09:53:15;1.95;;;0.60;;
9970;SDS011;5026;51.494;11.974;2023-03-14T09:55:44;1.20;;;0.80;;
9970;SDS011;5026;51.494;11.974;2023-03-14T09:58:14;2.40;;;1.02;;
9970;SDS011;5026;51.494;11.974;2023-03-14T10:00:44;1.55;;;0.85;;
9970;SDS011;5026;51.494;11.974;2023-03-14T10:03:21;1.33;;;0.85;;
9970;SDS011;5026;51.494;11.974;2023-03-14T10:05:53;0.90;;;0.60;;
9970;SDS011;5026;51.494;11.974;2023-03-14T10:08:22;2.35;;;0.80;;
9970;SDS011;5026;51.494;11.974;2023-03-14T10:10:49;3.67;;;0.80;;
9970;SDS011;5026;51.494;11.974;2023-03-14T10:13:17;0.90;;;0.68;;
9970;SDS011;5026;51.494;11.974;2023-03-14T10:15:47;2.15;;;1.13;;
9970;SDS011;5026;51.494;11.974;2023-03-14T10:18:17;2.30;;;1.23;;
9970;SDS011;5026;51.494;11.974;2023-03-14T10:20:47;2.03;;;0.90;;
9970;SDS011;5026;51.494;11.974;2023-03-14T10:23:22;1.40;;;0.70;;
9970;SDS011;5026;51.494;11.974;2023-03-14T10:26:00;2.75;;;0.70;;
9970;SDS011;5026;51.494;11.974;2023-03-14T10:28:34;0.90;;;0.70;;
9970;SDS011;5026;51.494;11.974;2023-03-14T10:31:05;1.83;;;0.65;;
9970;SDS011;5026;51.494;11.974;2023-03-14T10:33:33;2.47;;;0.70;;
9970;SDS011;5026;51.494;11.974;2023-03-14T10:36:02;1.65;;;0.47;;
9970;SDS011;5026;51.494;11.974;2023-03-14T10:38:33;1.65;;;0.65;;
9970;SDS011;5026;51.494;11.974;2023-03-14T10:41:01;1.08;;;0.50;;
9970;SDS011;5026;51.494;11.974;2023-03-14T10:43:40;1.40;;;0.73;;
9970;SDS011;5026;51.494;11.974;2023-03-14T10:46:08;0.85;;;0.50;;
9970;SDS011;5026;51.494;11.974;2023-03-14T10:48:38;0.80;;;0.60;;
9970;SDS011;5026;51.494;11.974;2023-03-14T10:51:07;1.70;;;0.57;;
9970;SDS011;5026;51.494;11.974;2023-03-14T10:53:42;2.15;;;0.90;;
9970;SDS011;5026;51.494;11.974;2023-03-14T10:56:11;2.05;;;0.50;;
9970;SDS011;5026;51.494;11.974;2023-03-14T10:58:40;0.65;;;0.57;;
9970;SDS011;5026;51.494;11.974;2023-03-14T11:01:15;0.63;;;0.60;;
9970;SDS011;5026;51.494;11.974;2023-03-14T11:03:53;1.33;;;0.70;;
9970;SDS011;5026;51.494;11.974;2023-03-14T11:06:24;0.98;;;0.65;;
9970;SDS011;5026;51.494;11.974;2023-03-14T11:09:03;1.50;;;0.77;;
9970;SDS011;5026;51.494;11.974;2023-03-14T11:11:36;1.67;;;0.95;;
9970;SDS011;5026;51.494;11.974;2023-03-14T11:14:12;1.88;;;0.77;;
9970;SDS011;5026;51.494;11.974;2023-03-14T11:16:49;1.10;;;0.45;;
9970;SDS011;5026;51.494;11.974;2023-03-14T11:22:24;0.65;;;0.50;;
9970;SDS011;5026;51.494;11.974;2023-03-14T11:25:03;0.80;;;0.40;;
9970;SDS011;5026;51.494;11.974;2023-03-14T11:27:42;2.53;;;0.60;;
9970;SDS011;5026;51.494;11.974;2023-03-14T11:30:15;0.70;;;0.50;;
9970;SDS011;5026;51.494;11.974;2023-03-14T11:32:45;0.22;;;0.22;;
9970;SDS011;5026;51.494;11.974;2023-03-14T11:35:20;2.08;;;0.40;;
9970;SDS011;5026;51.494;11.974;2023-03-14T11:37:53;1.15;;;0.40;;
9970;SDS011;5026;51.494;11.974;2023-03-14T11:40:24;0.47;;;0.47;;
9970;SDS011;5026;51.494;11.974;2023-03-14T11:42:55;0.70;;;0.40;;
9970;SDS011;5026;51.494;11.974;2023-03-14T11:45:27;0.30;;;0.30;;
9970;SDS011;5026;51.494;11.974;2023-03-14T11:48:05;0.30;;;0.30;;
9970;SDS011;5026;51.494;11.974;2023-03-14T11:50:39;0.98;;;0.47;;
9970;SDS011;5026;51.494;11.974;2023-03-14T11:53:09;3.10;;;0.60;;
9970;SDS011;5026;51.494;11.974;2023-03-14T11:55:42;0.90;;;0.50;;
9970;SDS011;5026;51.494;11.974;2023-03-14T11:58:12;1.85;;;0.40;;
9970;SDS011;5026;51.494;11.974;2023-03-14T12:00:43;0.47;;;0.38;;
9970;SDS011;5026;51.494;11.974;2023-03-14T12:03:14;1.77;;;0.60;;
9970;SDS011;5026;51.494;11.974;2023-03-14T12:05:48;0.40;;;0.40;;
9970;SDS011;5026;51.494;11.974;2023-03-14T12:08:31;0.80;;;0.30;;
9970;SDS011;5026;51.494;11.974;2023-03-14T12:11:12;0.43;;;0.40;;
9970;SDS011;5026;51.494;11.974;2023-03-14T12:13:45;0.45;;;0.40;;
9970;SDS011;5026;51.494;11.974;2023-03-14T12:16:26;0.30;;;0.30;;
9970;SDS011;5026;51.494;11.974;2023-03-14T12:24:53;2.72;;;0.50;;
9970;SDS011;5026;51.494;11.974;2023-03-14T12:27:40;0.85;;;0.63;;
9970;SDS011;5026;51.494;11.974;2023-03-14T12:30:23;1.45;;;0.50;;
9970;SDS011;5026;51.494;11.974;2023-03-14T12:33:11;0.47;;;0.40;;
9970;SDS011;5026;51.494;11.974;2023-03-14T12:35:48;2.42;;;0.70;;
9970;SDS011;5026;51.494;11.974;2023-03-14T12:38:18;0.40;;;0.40;;
9970;SDS011;5026;51.494;11.974;2023-03-14T12:40:54;1.15;;;0.75;;
9970;SDS011;5026;51.494;11.974;2023-03-14T12:43:29;1.35;;;0.60;;
9970;SDS011;5026;51.494;11.974;2023-03-14T12:46:08;0.68;;;0.50;;
9970;SDS011;5026;51.494;11.974;2023-03-14T12:48:47;1.88;;;0.40;;
9970;SDS011;5026;51.494;11.974;2023-03-14T12:51:15;1.13;;;0.30;;
9970;SDS011;5026;51.494;11.974;2023-03-14T12:53:53;0.40;;;0.25;;
9970;SDS011;5026;51.494;11.974;2023-03-14T12:59:46;0.90;;;0.20;;
9970;SDS011;5026;51.494;11.974;2023-03-14T13:02:24;1.02;;;0.50;;
9970;SDS011;5026;51.494;11.974;2023-03-14T13:04:59;1.45;;;0.75;;
9970;SDS011;5026;51.494;11.974;2023-03-14T13:07:33;0.30;;;0.30;;
9970;SDS011;5026;51.494;11.974;2023-03-14T13:10:15;0.60;;;0.40;;
9970;SDS011;5026;51.494;11.974;2023-03-14T13:12:47;0.28;;;0.28;;
9970;SDS011;5026;51.494;11.974;2023-03-14T13:15:19;0.57;;;0.50;;
9970;SDS011;5026;51.494;11.974;2023-03-14T13:17:59;0.52;;;0.50;;
9970;SDS011;5026;51.494;11.974;2023-03-14T13:20:29;1.48;;;0.38;;
9970;SDS011;5026;51.494;11.974;2023-03-14T13:22:58;0.50;;;0.50;;
9970;SDS011;5026;51.494;11.974;2023-03-14T13:25:29;1.17;;;0.45;;
9970;SDS011;5026;51.494;11.974;2023-03-14T13:27:58;0.50;;;0.50;;
9970;SDS011;5026;51.494;11.974;2023-03-14T13:30:27;0.57;;;0.47;;
9970;SDS011;5026;51.494;11.974;2023-03-14T13:32:55;0.40;;;0.40;;
9970;SDS011;5026;51.494;11.974;2023-03-14T13:35:23;1.85;;;0.30;;
9970;SDS011;5026;51.494;11.974;2023-03-14T13:37:53;1.33;;;0.30;;
9970;SDS011;5026;51.494;11.974;2023-03-14T13:40:24;0.40;;;0.38;;
9970;SDS011;5026;51.494;11.974;2023-03-14T13:43:11;0.40;;;0.40;;
9970;SDS011;5026;51.494;11.974;2023-03-14T13:45:44;1.33;;;0.50;;
9970;SDS011;5026;51.494;11.974;2023-03-14T13:48:17;0.55;;;0.40;;
9970;SDS011;5026;51.494;11.974;2023-03-14T13:50:51;0.55;;;0.55;;
9970;SDS011;5026;51.494;11.974;2023-03-14T13:53:21;0.40;;;0.35;;
9970;SDS011;5026;51.494;11.974;2023-03-14T13:55:49;0.77;;;0.38;;
9970;SDS011;5026;51.494;11.974;2023-03-14T13:58:20;0.25;;;0.20;;
9970;SDS011;5026;51.494;11.974;2023-03-14T14:01:00;0.40;;;0.40;;
9970;SDS011;5026;51.494;11.974;2023-03-14T14:03:31;0.43;;;0.30;;
9970;SDS011;5026;51.494;11.974;2023-03-14T14:06:10;1.52;;;0.43;;
9970;SDS011;5026;51.494;11.974;2023-03-14T14:08:52;0.45;;;0.45;;
9970;SDS011;5026;51.494;11.974;2023-03-14T14:11:21;0.35;;;0.35;;
9970;SDS011;5026;51.494;11.974;2023-03-14T14:13:55;1.38;;;0.70;;
9970;SDS011;5026;51.494;11.974;2023-03-14T14:16:24;1.23;;;0.30;;
9970;SDS011;5026;51.494;11.974;2023-03-14T14:18:54;2.42;;;0.38;;
9970;SDS011;5026;51.494;11.974;2023-03-14T14:21:23;2.28;;;0.50;;
9970;SDS011;5026;51.494;11.974;2023-03-14T14:23:51;1.05;;;0.85;;
9970;SDS011;5026;51.494;11.974;2023-03-14T14:26:19;1.35;;;0.40;;
9970;SDS011;5026;51.494;11.974;2023-03-14T14:28:46;0.40;;;0.40;;
9970;SDS011;5026;51.494;11.974;2023-03-14T14:31:25;0.43;;;0.40;;
9970;SDS011;5026;51.494;11.974;2023-03-14T14:33:56;0.98;;;0.60;;
9970;SDS011;5026;51.494;11.974;2023-03-14T14:36:24;0.57;;;0.50;;
9970;SDS011;5026;51.494;11.974;2023-03-14T14:38:57;1.55;;;0.50;;
9970;SDS011;5026;51.494;11.974;2023-03-14T14:41:26;1.30;;;0.82;;
9970;SDS011;5026;51.494;11.974;2023-03-14T14:43:55;4.57;;;1.60;;
9970;SDS011;5026;51.494;11.974;2023-03-14T14:46:23;3.72;;;1.17;;
9970;SDS011;5026;51.494;11.974;2023-03-14T14:48:56;2.50;;;0.93;;
9970;SDS011;5026;51.494;11.974;2023-03-14T14:51:25;0.70;;;0.70;;
9970;SDS011;5026;51.494;11.974;2023-03-14T14:54:02;3.40;;;0.90;;
9970;SDS011;5026;51.494;11.974;2023-03-14T14:56:37;1.10;;;0.90;;
9970;SDS011;5026;51.494;11.974;2023-03-14T14:59:05;1.73;;;0.90;;
9970;SDS011;5026;51.494;11.974;2023-03-14T15:01:46;1.27;;;1.17;;
9970;SDS011;5026;51.494;11.974;2023-03-14T15:04:15;1.43;;;1.30;;
9970;SDS011;5026;51.494;11.974;2023-03-14T15:06:42;0.90;;;0.90;;
9970;SDS011;5026;51.494;11.974;2023-03-14T15:09:12;1.10;;;1.10;;
9970;SDS011;5026;51.494;11.974;2023-03-14T15:11:41;0.97;;;0.97;;
9970;SDS011;5026;51.494;11.974;2023-03-14T15:14:08;0.57;;;0.53;;
9970;SDS011;5026;51.494;11.974;2023-03-14T15:16:35;0.37;;;0.37;;
9970;SDS011;5026;51.494;11.974;2023-03-14T15:19:08;0.43;;;0.43;;
9970;SDS011;5026;51.494;11.974;2023-03-14T15:21:37;0.47;;;0.47;;
9970;SDS011;5026;51.494;11.974;2023-03-14T15:24:05;0.83;;;0.50;;
9970;SDS011;5026;51.494;11.974;2023-03-14T15:26:32;0.50;;;0.50;;
9970;SDS011;5026;51.494;11.974;2023-03-14T15:28:59;1.27;;;0.70;;